»·PEaware :: N5205X KSNA-KSBD

N5205X :: KSNA-KSBD

FLIGHT INFORMATION

Flight Status: Arrived
Operator: Privately registered:
United States
More flights under this callsign
Pilot: Martin B. (29991)
Aircraft: CIRRUS VISIONJET
(SF50)
More flights by this aircraft type
Origin: KSNA John Wayne-Orange Co
United States
Destination: KSBD San Bernardino Intl
United States
More flights between these airports :: More routes between these airports
Route: SLI V8 PDZ
File this flight plan on PilotEdge
Remarks: TEC ROUTE CSTP13
Altitude:
(Current/Filed)
6,000ft
Speed:
(Current/Filed)
220kts
Departed: 11-Nov-20 10:50 AM
Arrived: 11-Nov-20 11:42 AM
Distance/Time
Traveled:
41nm/0:51
Distance/Time
To Go:
Arrived

Flight Plot

Page will automatically refresh every two minutes.


Map Options




Map Legend


Flown Route
Filed Route
Departure Airport
Arrival Airport
Navaid (VOR, NDB)
Fix

Horizontal Profiles

Position Reports

Time Latitude Longitude Heading Altitude Ground
Speed
11-Nov-20 10:27 33.674465 -117.871762 127 60ft 0kts
11-Nov-20 10:28 33.674465 -117.871762 127 60ft 0kts
11-Nov-20 10:29 33.674465 -117.871762 127 60ft 0kts
11-Nov-20 10:30 33.674465 -117.871762 127 60ft 0kts
11-Nov-20 10:31 33.674465 -117.871762 127 60ft 0kts
11-Nov-20 10:32 33.674465 -117.871762 127 60ft 0kts
11-Nov-20 10:33 33.674465 -117.871762 127 60ft 0kts
11-Nov-20 10:34 33.674465 -117.871762 127 60ft 0kts
11-Nov-20 10:35 33.674464 -117.871759 127 60ft 0kts
11-Nov-20 10:36 33.675338 -117.870555 26 60ft 2kts
11-Nov-20 10:37 33.675535 -117.870432 28 60ft 0kts
11-Nov-20 10:38 33.676416 -117.869883 26 60ft 3kts
11-Nov-20 10:39 33.678449 -117.868612 29 60ft 0kts
11-Nov-20 10:40 33.679636 -117.867856 23 60ft 0kts
11-Nov-20 10:41 33.679636 -117.867856 23 60ft 0kts
11-Nov-20 10:42 33.679636 -117.867856 23 60ft 0kts
11-Nov-20 10:43 33.679636 -117.867856 23 60ft 0kts
11-Nov-20 10:44 33.679636 -117.867856 23 60ft 0kts
11-Nov-20 10:45 33.679754 -117.867807 18 60ft 2kts
11-Nov-20 10:46 33.681816 -117.866436 41 60ft 10kts
11-Nov-20 10:47 33.681919 -117.866113 91 60ft 0kts
11-Nov-20 10:48 33.681207 -117.865360 201 60ft 0kts
11-Nov-20 10:50 33.669230 -117.874597 229 704ft 117kts
11-Nov-20 10:51 33.642001 -117.886671 181 3405ft 99kts
11-Nov-20 10:52 33.625445 -117.900050 299 5427ft 91kts
11-Nov-20 10:58 33.674465 -117.871762 0 60ft 0kts
11-Nov-20 10:59 33.674465 -117.871762 127 60ft 0kts
11-Nov-20 11:00 33.674465 -117.871762 127 60ft 0kts
11-Nov-20 11:01 33.674465 -117.871762 127 60ft 0kts
11-Nov-20 11:02 33.674465 -117.871762 127 60ft 0kts
11-Nov-20 11:03 33.674465 -117.871762 127 60ft 0kts
11-Nov-20 11:04 33.674465 -117.871762 127 60ft 0kts
11-Nov-20 11:05 33.674465 -117.871762 127 60ft 0kts
11-Nov-20 11:06 33.674465 -117.871762 127 60ft 0kts
11-Nov-20 11:07 33.674465 -117.871762 127 60ft 0kts
11-Nov-20 11:08 33.674465 -117.871762 127 60ft 0kts
11-Nov-20 11:09 33.674465 -117.871762 127 60ft 0kts
11-Nov-20 11:09 33.674465 -117.871762 127 60ft 0kts
11-Nov-20 11:11 33.674465 -117.871762 127 60ft 0kts
11-Nov-20 11:11 33.674465 -117.871762 127 60ft 0kts
11-Nov-20 11:12 33.674465 -117.871762 127 60ft 0kts
11-Nov-20 11:13 33.674465 -117.871762 127 60ft 0kts
11-Nov-20 11:14 33.674461 -117.871756 127 60ft 1kts
11-Nov-20 11:15 33.678017 -117.868904 31 60ft 22kts
11-Nov-20 11:16 33.681920 -117.866342 86 61ft 0kts
11-Nov-20 11:17 33.681921 -117.866323 86 60ft 1kts
11-Nov-20 11:18 33.681218 -117.865327 207 60ft 0kts
11-Nov-20 11:19 33.669480 -117.873746 215 435ft 138kts
11-Nov-20 11:20 33.621562 -117.883735 185 3088ft 159kts
11-Nov-20 11:21 33.579103 -117.889414 184 5004ft 171kts
11-Nov-20 11:22 33.573446 -117.853717 23 5024ft 155kts
11-Nov-20 11:23 33.615701 -117.849154 1 5643ft 153kts
11-Nov-20 11:24 33.662306 -117.846303 1 6019ft 182kts
11-Nov-20 11:25 33.712883 -117.843452 1 6017ft 182kts
11-Nov-20 11:26 33.763677 -117.840584 1 6017ft 182kts
11-Nov-20 11:27 33.814197 -117.838010 1 5818ft 181kts
11-Nov-20 11:28 33.862838 -117.843240 27 5794ft 181kts
11-Nov-20 11:29 33.863861 -117.784502 96 5794ft 192kts
11-Nov-20 11:30 33.868645 -117.721553 75 5798ft 189kts
11-Nov-20 11:31 33.885093 -117.661623 57 5802ft 185kts
11-Nov-20 11:32 33.908334 -117.614782 55 5806ft 160kts
11-Nov-20 11:33 33.931254 -117.568425 56 5805ft 161kts
11-Nov-20 11:34 33.954277 -117.521802 56 5802ft 161kts
11-Nov-20 11:35 33.977364 -117.475347 56 5801ft 161kts
11-Nov-20 11:36 34.002485 -117.427348 52 5026ft 190kts
11-Nov-20 11:37 34.033917 -117.372150 60 3456ft 196kts
11-Nov-20 11:38 34.052886 -117.319460 53 2926ft 154kts
11-Nov-20 11:39 34.074648 -117.287046 56 2132ft 112kts
11-Nov-20 11:40 34.087592 -117.260135 66 1437ft 75kts
11-Nov-20 11:41 34.093270 -117.241897 61 1105ft 19kts
11-Nov-20 11:42 34.094531 -117.240682 33 1107ft 0kts
11-Nov-20 11:43 34.097697 -117.238110 44 1114ft 22kts
11-Nov-20 11:44 34.100590 -117.230790 108 1135ft 35kts
11-Nov-20 11:45 34.101395 -117.225025 109 1149ft 0kts

Navigation Log

Ident Type
Flight plan parsing failed, navigation log unavailable